Time;durP1;ratioP1;P1;durP2;ratioP2;P2;SDS_P1;SDS_P2;PMS_P1;PMS_P2;Temp;Humidity;BMP_temperature;BMP_pressure;BME280_temperature;BME280_humidity;BME280_pressure;Samples;Min_cycle;Max_cycle;Signal;HPM_P1;HPM_P2
2022/06/15 00:00:56;;;;;;;3.33;1.33;;;;;;;10.65;100.00;101290.97;5029531;28;20202;-71
2022/06/15 00:03:25;;;;;;;1.93;1.30;;;;;;;10.68;100.00;101288.34;5029455;28;20208;-71
2022/06/15 00:05:51;;;;;;;2.63;1.20;;;;;;;10.59;100.00;101290.19;5024898;28;20204;-72
2022/06/15 00:08:19;;;;;;;2.80;1.83;;;;;;;10.53;100.00;101292.88;5019986;28;20223;-71
2022/06/15 00:10:46;;;;;;;1.63;1.40;;;;;;;10.36;100.00;101289.66;5028704;28;20194;-71
2022/06/15 00:13:12;;;;;;;2.60;1.60;;;;;;;10.30;100.00;101295.78;5025819;28;20742;-72
2022/06/15 00:15:38;;;;;;;3.07;1.30;;;;;;;10.28;100.00;101289.75;5028850;28;20217;-72
2022/06/15 00:18:05;;;;;;;3.10;1.63;;;;;;;10.42;100.00;101286.97;5028226;28;20590;-73
2022/06/15 00:20:33;;;;;;;1.97;1.40;;;;;;;10.44;100.00;101290.41;5026628;28;20214;-71
2022/06/15 00:22:59;;;;;;;1.80;1.70;;;;;;;10.47;100.00;101294.75;5023411;28;20197;-72
2022/06/15 00:25:25;;;;;;;1.57;1.23;;;;;;;10.32;100.00;101291.44;5029892;28;20212;-72
2022/06/15 00:27:52;;;;;;;1.70;1.50;;;;;;;10.38;100.00;101288.78;5022490;28;20228;-71
2022/06/15 00:30:21;;;;;;;2.03;1.63;;;;;;;10.35;100.00;101285.34;5026189;28;20196;-72
2022/06/15 00:32:48;;;;;;;4.43;1.60;;;;;;;10.25;100.00;101284.56;5024386;28;20207;-73
2022/06/15 00:35:16;;;;;;;2.80;1.60;;;;;;;10.20;100.00;101291.59;5007842;28;20203;-71
2022/06/15 00:37:44;;;;;;;1.07;1.07;;;;;;;10.30;100.00;101277.56;5024878;28;20212;-71
2022/06/15 00:40:11;;;;;;;2.93;1.63;;;;;;;10.27;100.00;101282.81;5025697;28;20200;-71
2022/06/15 00:42:37;;;;;;;1.40;1.30;;;;;;;10.35;100.00;101281.00;5024131;28;20201;-71
2022/06/15 00:45:05;;;;;;;2.80;1.40;;;;;;;10.25;100.00;101281.97;5027704;28;20205;-71
2022/06/15 00:47:36;;;;;;;2.83;1.40;;;;;;;10.27;100.00;101282.81;5023639;28;20279;-72
2022/06/15 00:50:06;;;;;;;5.47;1.70;;;;;;;10.26;100.00;101282.84;5031592;28;20204;-71
2022/06/15 00:52:37;;;;;;;1.93;1.40;;;;;;;10.22;100.00;101282.88;5025966;28;20189;-71
2022/06/15 00:55:10;;;;;;;2.60;1.33;;;;;;;9.98;100.00;101280.63;5009096;28;20694;-72
2022/06/15 00:57:37;;;;;;;4.63;1.67;;;;;;;10.12;100.00;101277.84;5009948;28;20215;-71
2022/06/15 01:00:06;;;;;;;2.03;1.40;;;;;;;10.05;100.00;101282.25;5008141;28;20197;-73
2022/06/15 01:02:35;;;;;;;2.20;1.50;;;;;;;10.01;100.00;101278.84;5003444;28;20212;-71
2022/06/15 01:05:08;;;;;;;2.63;1.60;;;;;;;10.13;100.00;101283.03;5031588;28;20869;-71
2022/06/15 01:07:52;;;;;;;2.37;1.57;;;;;;;10.01;100.00;101275.38;5007459;28;20210;-71
2022/06/15 01:10:32;;;;;;;4.80;1.50;;;;;;;10.12;100.00;101281.28;5024366;28;20193;-71
2022/06/15 01:13:09;;;;;;;3.27;1.60;;;;;;;10.04;100.00;101283.13;5007886;28;20218;-71
2022/06/15 01:15:45;;;;;;;1.70;1.60;;;;;;;9.90;100.00;101274.63;5011978;28;20976;-71
2022/06/15 01:18:28;;;;;;;3.77;1.80;;;;;;;9.52;100.00;101270.78;5022663;28;20219;-71
2022/06/15 01:21:07;;;;;;;1.97;1.60;;;;;;;9.68;100.00;101271.47;5013227;28;20222;-72
2022/06/15 01:24:09;;;;;;;2.90;1.57;;;;;;;9.56;100.00;101278.50;5025498;28;20744;-71
2022/06/15 01:27:00;;;;;;;5.43;1.50;;;;;;;9.48;100.00;101270.81;5028768;28;20208;-72
2022/06/15 01:30:01;;;;;;;2.80;1.90;;;;;;;9.40;100.00;101269.16;5023855;28;20311;-72
2022/06/15 01:32:36;;;;;;;2.00;1.80;;;;;;;9.19;100.00;101268.50;5006743;28;20217;-71
2022/06/15 01:35:12;;;;;;;3.83;2.10;;;;;;;9.33;100.00;101273.56;5024349;28;20207;-71
2022/06/15 01:37:47;;;;;;;3.83;2.27;;;;;;;9.49;100.00;101266.44;5004798;28;20603;-71
2022/06/15 01:40:20;;;;;;;2.53;1.73;;;;;;;9.71;100.00;101266.19;5026349;28;20214;-71
2022/06/15 01:42:59;;;;;;;5.57;1.70;;;;;;;9.74;100.00;101263.56;5026805;28;20296;-71
2022/06/15 01:45:31;;;;;;;2.63;1.73;;;;;;;9.57;100.00;101259.44;5007383;28;20201;-71
2022/06/15 01:48:03;;;;;;;2.97;1.93;;;;;;;9.63;100.00;101264.53;5007145;28;20592;-73
2022/06/15 01:50:35;;;;;;;3.50;1.73;;;;;;;9.69;100.00;101255.78;5025954;28;20669;-71
2022/06/15 01:53:08;;;;;;;3.53;1.87;;;;;;;9.54;100.00;101254.25;5027205;28;20220;-71
2022/06/15 01:55:41;;;;;;;3.30;1.70;;;;;;;9.42;100.00;101262.19;5001970;28;20212;-71
2022/06/15 01:58:12;;;;;;;3.00;1.97;;;;;;;9.45;100.00;101246.56;5000983;28;20214;-72
2022/06/15 02:00:40;;;;;;;5.43;2.00;;;;;;;9.37;100.00;101250.97;5025123;28;20203;-71
2022/06/15 02:03:16;;;;;;;3.03;1.70;;;;;;;9.33;100.00;101254.50;5009167;28;20226;-71
2022/06/15 02:05:53;;;;;;;2.63;1.83;;;;;;;9.35;100.00;101250.13;5002113;28;20261;-71
2022/06/15 02:08:24;;;;;;;3.93;2.00;;;;;;;9.45;100.00;101247.41;5008792;28;20223;-71
2022/06/15 02:10:59;;;;;;;2.27;1.73;;;;;;;9.45;100.00;101249.16;5001467;28;20201;-72
2022/06/15 02:13:30;;;;;;;1.70;1.53;;;;;;;9.20;100.00;101246.81;5020753;28;20207;-71
2022/06/15 02:16:04;;;;;;;4.50;1.90;;;;;;;9.13;100.00;101249.47;5024778;28;20707;-71
2022/06/15 02:18:36;;;;;;;3.77;1.73;;;;;;;9.44;100.00;101250.88;5008995;28;20663;-71
2022/06/15 02:21:06;;;;;;;3.50;1.70;;;;;;;9.46;100.00;101253.47;5005973;28;20205;-71
2022/06/15 02:23:37;;;;;;;4.00;1.97;;;;;;;9.29;100.00;101258.88;5026054;28;20215;-72
2022/06/15 02:26:05;;;;;;;4.47;2.30;;;;;;;9.37;100.00;101256.19;5009711;28;20208;-71
2022/06/15 02:28:35;;;;;;;3.47;2.17;;;;;;;9.39;100.00;101247.50;5004067;28;20592;-71
2022/06/15 02:31:02;;;;;;;2.07;1.70;;;;;;;9.47;100.00;101253.44;5008690;28;20266;-72
2022/06/15 02:33:33;;;;;;;3.37;1.90;;;;;;;9.27;100.00;101248.47;5006387;28;20707;-72
2022/06/15 02:36:05;;;;;;;6.00;2.33;;;;;;;9.21;100.00;101251.13;5023870;28;20674;-72
2022/06/15 02:38:33;;;;;;;2.23;1.67;;;;;;;9.29;100.00;101243.25;5006484;28;20223;-71
2022/06/15 02:41:01;;;;;;;4.10;1.80;;;;;;;9.42;100.00;101247.44;5030869;28;20204;-72
2022/06/15 02:43:30;;;;;;;3.37;1.93;;;;;;;9.45;100.00;101239.59;5008286;28;20227;-71
2022/06/15 02:46:00;;;;;;;4.27;2.00;;;;;;;9.43;100.00;101243.09;5006163;28;20204;-71
2022/06/15 02:48:30;;;;;;;2.60;2.07;;;;;;;9.26;100.00;101245.88;5014097;28;20230;-72
2022/06/15 02:51:05;;;;;;;4.30;2.00;;;;;;;9.33;100.00;101244.94;5011455;28;20195;-71
2022/06/15 02:53:35;;;;;;;1.90;1.80;;;;;;;9.21;100.00;101255.47;5007891;28;20191;-71
2022/06/15 02:56:05;;;;;;;3.47;1.67;;;;;;;9.24;100.00;101248.50;5008022;28;20568;-71
2022/06/15 02:58:34;;;;;;;4.80;1.90;;;;;;;9.23;100.00;101254.59;5005407;28;20216;-71
2022/06/15 03:01:02;;;;;;;6.83;2.00;;;;;;;9.29;100.00;101262.31;5009229;28;20200;-72
2022/06/15 03:03:31;;;;;;;3.10;1.60;;;;;;;9.23;100.00;101258.94;5017952;28;20206;-71
2022/06/15 03:06:09;;;;;;;3.00;1.70;;;;;;;9.12;100.00;101250.38;5030542;28;20253;-71
2022/06/15 03:08:37;;;;;;;2.27;2.07;;;;;;;8.91;100.00;101255.75;5027880;28;20234;-71
2022/06/15 03:11:10;;;;;;;2.23;2.03;;;;;;;8.53;100.00;101263.88;5012445;28;20203;-71
2022/06/15 03:13:38;;;;;;;4.10;2.27;;;;;;;8.77;100.00;101265.41;5009617;28;20224;-71
2022/06/15 03:16:06;;;;;;;5.47;1.90;;;;;;;8.78;100.00;101264.56;5015917;28;20191;-71
2022/06/15 03:18:33;;;;;;;4.30;2.10;;;;;;;9.16;100.00;101255.50;5013676;28;20239;-71
2022/06/15 03:21:05;;;;;;;10.40;2.87;;;;;;;9.19;100.00;101258.09;5003958;28;20200;-71
2022/06/15 03:23:34;;;;;;;2.90;2.00;;;;;;;9.17;100.00;101259.84;5009626;28;20739;-71
2022/06/15 03:26:03;;;;;;;5.33;2.97;;;;;;;9.41;100.00;101263.06;5028071;28;20500;-71
2022/06/15 03:28:35;;;;;;;4.33;2.57;;;;;;;9.56;100.00;101249.03;5010953;28;21051;-71
2022/06/15 03:31:04;;;;;;;2.50;2.13;;;;;;;9.60;100.00;101248.97;5006123;28;20207;-71
2022/06/15 03:33:31;;;;;;;3.77;2.13;;;;;;;9.72;100.00;101260.13;5015173;28;20196;-72
2022/06/15 03:35:59;;;;;;;3.83;2.40;;;;;;;9.76;100.00;101260.06;5010802;28;20722;-71
2022/06/15 03:38:31;;;;;;;4.27;2.27;;;;;;;9.73;100.00;101262.69;5007508;28;20325;-72
2022/06/15 03:41:09;;;;;;;4.17;2.47;;;;;;;9.97;100.00;101264.13;5031708;28;20706;-71
2022/06/15 03:43:35;;;;;;;2.20;2.00;;;;;;;10.08;100.00;101263.97;5010071;28;20227;-71
2022/06/15 03:46:02;;;;;;;3.87;2.33;;;;;;;10.07;100.00;101258.78;5031670;28;20215;-72
2022/06/15 03:48:34;;;;;;;3.77;2.20;;;;;;;10.22;100.00;101267.25;5029325;28;20227;-71
2022/06/15 03:51:01;;;;;;;5.77;2.63;;;;;;;10.29;100.00;101262.81;5014599;28;20281;-72
2022/06/15 03:53:31;;;;;;;3.17;2.10;;;;;;;10.42;100.00;101269.59;5009681;28;20201;-72
2022/06/15 03:55:58;;;;;;;2.30;1.97;;;;;;;10.59;100.00;101268.47;5017170;28;20289;-71
2022/06/15 03:58:26;;;;;;;2.20;1.83;;;;;;;10.61;100.00;101269.31;5027844;28;20230;-71
2022/06/15 04:00:54;;;;;;;3.20;1.97;;;;;;;10.74;100.00;101255.16;5005243;28;20200;-71
2022/06/15 04:03:24;;;;;;;2.83;2.10;;;;;;;10.92;100.00;101255.75;5006550;28;20190;-72
2022/06/15 04:05:56;;;;;;;3.67;2.00;;;;;;;10.95;100.00;101240.03;5006774;28;20207;-72
2022/06/15 04:08:35;;;;;;;3.13;1.83;;;;;;;11.05;100.00;101244.22;5008457;28;20313;-72
2022/06/15 04:11:07;;;;;;;3.37;2.37;;;;;;;11.21;100.00;101246.53;5005368;28;20494;-72
2022/06/15 04:13:36;;;;;;;4.13;2.53;;;;;;;11.23;100.00;101253.44;5008204;28;20287;-72
2022/06/15 04:16:06;;;;;;;3.33;2.10;;;;;;;11.31;100.00;101256.78;5018746;28;20281;-71
2022/06/15 04:18:34;;;;;;;7.17;2.13;;;;;;;11.48;100.00;101256.44;5019877;28;20224;-72
2022/06/15 04:21:06;;;;;;;2.40;2.10;;;;;;;11.62;100.00;101255.31;5007402;28;20320;-71
2022/06/15 04:23:32;;;;;;;2.60;2.20;;;;;;;11.71;100.00;101260.34;5022142;28;21490;-72
2022/06/15 04:26:02;;;;;;;3.67;2.13;;;;;;;11.88;100.00;101254.75;5023192;28;20308;-71
2022/06/15 04:28:43;;;;;;;2.00;1.80;;;;;;;12.09;100.00;101256.06;5020414;28;20312;-71
2022/06/15 04:31:26;;;;;;;3.13;2.23;;;;;;;12.16;100.00;101251.59;5003893;28;20696;-72
2022/06/15 04:33:54;;;;;;;3.43;1.87;;;;;;;12.15;100.00;101255.94;5026046;28;20200;-71
2022/06/15 04:36:24;;;;;;;6.50;1.80;;;;;;;12.32;100.00;101255.53;5005291;28;20195;-71
2022/06/15 04:38:56;;;;;;;2.53;1.87;;;;;;;12.49;100.00;101249.94;5009986;28;20254;-72
2022/06/15 04:41:25;;;;;;;5.80;1.70;;;;;;;12.54;100.00;101261.16;5009743;28;20204;-71
2022/06/15 04:43:53;;;;;;;2.57;1.40;;;;;;;12.56;95.27;101267.19;5027490;28;20231;-71
2022/06/15 04:46:20;;;;;;;4.03;1.80;;;;;;;12.63;95.17;101258.28;5005681;28;20579;-71
2022/06/15 04:48:48;;;;;;;1.53;1.27;;;;;;;12.75;96.69;101258.88;5009589;28;20236;-72
2022/06/15 04:51:18;;;;;;;2.30;1.40;;;;;;;12.74;91.28;101273.72;5023716;28;20197;-71
2022/06/15 04:53:49;;;;;;;7.23;1.70;;;;;;;12.84;92.39;101267.38;5004245;28;20297;-71
2022/06/15 04:56:15;;;;;;;2.60;1.30;;;;;;;12.96;93.11;101268.78;5012545;28;20206;-71
2022/06/15 04:58:43;;;;;;;6.63;1.70;;;;;;;13.00;88.51;101275.69;5008604;28;20219;-72
2022/06/15 05:01:11;;;;;;;1.63;1.13;;;;;;;13.06;89.13;101274.66;5008548;28;20205;-71
2022/06/15 05:03:38;;;;;;;2.40;1.40;;;;;;;13.06;84.06;101282.50;5006033;28;20310;-71
2022/06/15 05:06:09;;;;;;;3.03;1.43;;;;;;;13.17;85.37;101274.38;5023324;28;20329;-72
2022/06/15 05:08:36;;;;;;;3.13;1.40;;;;;;;13.24;79.90;101286.41;5021711;28;20462;-71
2022/06/15 05:11:04;;;;;;;2.50;1.20;;;;;;;13.43;77.67;101287.66;5017383;28;20198;-73
2022/06/15 05:13:33;;;;;;;2.47;1.40;;;;;;;13.61;78.44;101282.81;5025763;28;20287;-72
2022/06/15 05:16:00;;;;;;;2.27;1.20;;;;;;;13.78;76.20;101282.31;5010191;28;20201;-72
2022/06/15 05:18:29;;;;;;;1.67;1.40;;;;;;;13.96;75.00;101286.16;5003389;28;20222;-72
2022/06/15 05:21:01;;;;;;;2.93;1.47;;;;;;;14.07;74.03;101283.22;5005701;28;20203;-72
2022/06/15 05:23:28;;;;;;;2.13;1.30;;;;;;;14.19;75.07;101286.34;5010335;28;20202;-71
2022/06/15 05:26:07;;;;;;;2.30;1.50;;;;;;;14.39;76.87;101280.47;5018441;28;20277;-71
2022/06/15 05:28:37;;;;;;;1.67;1.33;;;;;;;14.54;73.99;101281.72;5009202;28;20227;-71
2022/06/15 05:31:09;;;;;;;2.60;1.33;;;;;;;14.70;71.89;101287.38;5008126;28;20195;-71
2022/06/15 05:33:40;;;;;;;2.33;1.13;;;;;;;14.83;72.99;101287.84;5010892;28;20193;-72
2022/06/15 05:36:12;;;;;;;2.23;1.30;;;;;;;14.93;70.78;101289.25;5011686;28;20239;-72
2022/06/15 05:38:39;;;;;;;1.50;1.10;;;;;;;14.97;69.12;101292.63;5007358;28;20573;-71
2022/06/15 05:41:07;;;;;;;1.97;1.23;;;;;;;15.05;67.37;101292.38;5009769;28;20207;-72
2022/06/15 05:43:36;;;;;;;2.17;1.23;;;;;;;15.15;70.74;101288.50;5014042;28;20230;-72
2022/06/15 05:46:13;;;;;;;1.60;1.30;;;;;;;15.17;70.30;101285.84;5008108;28;20541;-71
2022/06/15 05:48:42;;;;;;;1.27;1.17;;;;;;;15.20;69.57;101289.22;5004049;28;20447;-71
2022/06/15 05:51:09;;;;;;;3.27;1.27;;;;;;;15.36;73.23;101289.53;5004550;28;20612;-71
2022/06/15 05:53:36;;;;;;;2.50;1.20;;;;;;;15.46;66.94;101292.66;5023060;28;20203;-72
2022/06/15 05:56:03;;;;;;;2.27;1.20;;;;;;;15.60;65.25;101292.19;5025508;28;20195;-71
2022/06/15 05:58:30;;;;;;;3.13;1.30;;;;;;;15.73;66.88;101300.50;5004766;28;20227;-72
2022/06/15 06:00:56;;;;;;;3.30;1.47;;;;;;;15.83;67.48;101291.34;5023682;28;20213;-71
2022/06/15 06:03:22;;;;;;;2.20;1.23;;;;;;;15.92;66.29;101295.41;5020006;28;20200;-71
2022/06/15 06:05:50;;;;;;;2.80;1.20;;;;;;;16.00;67.98;101285.47;5018230;28;20465;-72
2022/06/15 06:08:16;;;;;;;1.50;1.03;;;;;;;16.09;66.43;101285.09;5024848;28;20221;-72
2022/06/15 06:10:43;;;;;;;1.87;1.30;;;;;;;16.23;66.43;101282.78;5020655;28;20294;-72
2022/06/15 06:13:09;;;;;;;2.17;1.20;;;;;;;16.36;64.56;101287.56;5021660;28;20247;-72
2022/06/15 06:15:35;;;;;;;1.43;0.97;;;;;;;16.45;65.12;101297.75;5022188;28;20209;-71
2022/06/15 06:18:02;;;;;;;4.63;1.03;;;;;;;16.56;64.60;101295.53;5028681;28;20226;-73
2022/06/15 06:20:29;;;;;;;3.17;1.10;;;;;;;16.63;65.89;101290.88;5022494;28;20215;-72
2022/06/15 06:22:56;;;;;;;2.90;1.00;;;;;;;16.77;60.67;101306.09;5026505;28;20205;-72
2022/06/15 06:25:23;;;;;;;3.13;1.00;;;;;;;16.94;62.52;101303.66;5021883;28;20210;-71
2022/06/15 06:27:49;;;;;;;1.93;0.80;;;;;;;17.04;60.03;101309.38;5027372;28;20588;-72
2022/06/15 06:30:16;;;;;;;2.40;1.13;;;;;;;17.12;60.09;101314.34;5020480;28;20574;-72
2022/06/15 06:32:42;;;;;;;1.53;1.00;;;;;;;17.22;59.01;101311.25;5033265;28;20225;-71
2022/06/15 06:35:10;;;;;;;1.70;1.07;;;;;;;17.33;59.76;101310.78;5022520;28;20208;-71
2022/06/15 06:37:36;;;;;;;2.33;1.20;;;;;;;17.45;60.12;101305.88;5024425;28;20206;-71
2022/06/15 06:40:06;;;;;;;1.53;1.30;;;;;;;17.55;60.51;101296.66;5030959;28;20197;-71
2022/06/15 06:42:32;;;;;;;2.77;1.50;;;;;;;17.65;58.61;101305.00;5025562;28;20822;-71
2022/06/15 06:45:00;;;;;;;1.43;0.97;;;;;;;17.73;57.84;101298.47;5033429;28;20249;-72
2022/06/15 06:47:29;;;;;;;2.77;1.20;;;;;;;17.88;56.06;101304.84;5027419;28;20211;-72
2022/06/15 06:49:55;;;;;;;1.43;1.10;;;;;;;17.89;54.55;101297.81;5027904;28;20227;-71
2022/06/15 06:52:21;;;;;;;2.17;1.20;;;;;;;18.02;55.09;101291.00;5029781;28;20199;-73
2022/06/15 06:54:48;;;;;;;1.30;1.00;;;;;;;18.12;56.28;101294.09;5027197;28;20311;-72
2022/06/15 06:57:16;;;;;;;2.53;1.13;;;;;;;18.25;56.72;101292.56;5023872;28;20548;-72
2022/06/15 06:59:42;;;;;;;1.00;0.80;;;;;;;18.39;55.06;101296.34;5026559;28;20212;-72
2022/06/15 07:02:10;;;;;;;2.00;1.10;;;;;;;18.49;51.84;101298.44;5021971;28;20705;-71
2022/06/15 07:04:37;;;;;;;0.87;0.80;;;;;;;18.53;52.91;101301.78;5028583;28;20215;-73
2022/06/15 07:07:03;;;;;;;1.17;0.90;;;;;;;18.66;52.01;101300.28;5029834;28;20363;-72
2022/06/15 07:09:30;;;;;;;2.37;1.00;;;;;;;18.82;52.14;101297.75;5031092;28;20278;-71
2022/06/15 07:11:57;;;;;;;1.23;1.00;;;;;;;18.94;52.43;101295.41;5025106;28;20324;-72
2022/06/15 07:14:24;;;;;;;1.20;1.00;;;;;;;19.06;52.82;101294.78;5036481;28;20200;-72
2022/06/15 07:16:51;;;;;;;3.50;1.30;;;;;;;19.07;52.38;101294.72;5026599;28;20214;-72
2022/06/15 07:19:17;;;;;;;4.60;1.23;;;;;;;19.23;51.45;101291.28;5026137;28;20215;-73
2022/06/15 07:21:43;;;;;;;2.00;0.83;;;;;;;19.35;48.79;101292.44;5027395;28;20204;-72
2022/06/15 07:24:10;;;;;;;1.43;1.00;;;;;;;19.49;49.01;101292.56;5027532;28;20712;-72
2022/06/15 07:26:41;;;;;;;5.17;1.50;;;;;;;19.57;50.54;101289.50;5027101;28;20208;-72
2022/06/15 07:29:09;;;;;;;5.20;1.30;;;;;;;19.62;47.48;101298.06;5024362;28;20546;-72
2022/06/15 07:31:40;;;;;;;4.30;1.00;;;;;;;19.62;49.05;101298.91;5023557;28;20204;-72
2022/06/15 07:34:08;;;;;;;1.70;1.00;;;;;;;19.75;49.07;101299.16;5027226;28;20636;-72
2022/06/15 07:36:34;;;;;;;2.80;0.90;;;;;;;19.81;47.27;101296.16;5032301;28;20295;-72
2022/06/15 07:39:01;;;;;;;1.73;1.00;;;;;;;19.84;47.57;101288.06;5026211;28;20223;-72
2022/06/15 07:41:28;;;;;;;2.17;1.03;;;;;;;19.95;47.95;101295.41;5031130;28;20282;-73
2022/06/15 07:43:55;;;;;;;1.80;1.00;;;;;;;19.92;46.85;101289.44;5033466;28;20269;-71
2022/06/15 07:46:22;;;;;;;1.10;0.93;;;;;;;19.98;45.86;101289.97;5027438;28;20196;-70
2022/06/15 07:51:36;;;;;;;4.03;1.00;;;;;;;20.21;45.19;101288.66;5022545;28;20820;-71
2022/06/15 07:54:05;;;;;;;2.73;1.13;;;;;;;20.32;46.40;101277.47;5023152;28;20208;-72
2022/06/15 07:56:33;;;;;;;3.50;1.00;;;;;;;20.40;47.12;101288.50;5022524;28;20604;-70
2022/06/15 07:58:59;;;;;;;4.43;1.10;;;;;;;20.62;46.53;101284.63;5029923;28;20228;-70
2022/06/15 08:01:27;;;;;;;1.67;1.30;;;;;;;20.87;47.53;101284.03;5029858;28;20556;-70
2022/06/15 08:03:55;;;;;;;1.90;1.20;;;;;;;20.88;44.12;101285.75;5033021;28;20203;-71
2022/06/15 08:06:22;;;;;;;2.40;1.30;;;;;;;20.82;43.00;101274.66;5027301;28;20247;-70
2022/06/15 08:08:49;;;;;;;3.23;1.10;;;;;;;20.67;42.59;101279.03;5025722;28;20211;-71
2022/06/15 08:11:16;;;;;;;1.53;1.10;;;;;;;20.86;43.01;101271.75;5021576;28;20204;-70
2022/06/15 08:13:43;;;;;;;5.83;1.90;;;;;;;21.05;44.77;101268.84;5026909;28;20202;-70
2022/06/15 08:16:09;;;;;;;3.40;2.73;;;;;;;21.30;46.54;101264.69;5023423;28;20208;-70
2022/06/15 08:18:41;;;;;;;3.10;2.10;;;;;;;21.43;44.98;101262.16;5032966;28;20215;-70
2022/06/15 08:21:12;;;;;;;1.80;1.13;;;;;;;21.49;44.00;101262.63;5025440;28;20192;-71
2022/06/15 08:23:43;;;;;;;2.10;1.90;;;;;;;21.66;44.54;101255.44;5028509;28;20204;-71
2022/06/15 08:26:13;;;;;;;1.87;1.50;;;;;;;21.75;43.77;101255.72;5026167;28;20639;-71
2022/06/15 08:28:44;;;;;;;4.50;2.00;;;;;;;21.83;44.35;101257.91;5025952;28;20661;-70
2022/06/15 08:31:11;;;;;;;2.40;1.50;;;;;;;21.95;44.49;101258.88;5025251;28;20215;-70
2022/06/15 08:33:38;;;;;;;2.23;0.97;;;;;;;21.88;42.31;101257.56;5030594;28;20275;-71
2022/06/15 08:36:07;;;;;;;3.00;1.13;;;;;;;21.72;41.08;101257.69;5027101;28;20203;-70
2022/06/15 08:38:34;;;;;;;3.57;1.00;;;;;;;21.79;40.09;101253.72;5030187;28;20671;-70
2022/06/15 08:41:04;;;;;;;1.43;1.10;;;;;;;21.73;41.26;101239.03;5023148;28;20192;-70
2022/06/15 08:43:42;;;;;;;3.33;0.97;;;;;;;21.90;40.54;101245.09;5022841;28;20212;-70
2022/06/15 08:46:18;;;;;;;2.33;0.90;;;;;;;22.01;41.54;101239.09;5021433;28;20203;-71
2022/06/15 08:48:59;;;;;;;2.53;1.00;;;;;;;22.17;39.18;101242.44;5014751;28;20592;-70
2022/06/15 08:51:31;;;;;;;2.03;1.07;;;;;;;22.26;39.97;101239.16;5026046;28;20212;-71
2022/06/15 08:54:04;;;;;;;2.93;1.00;;;;;;;22.46;41.21;101237.91;5007655;28;20208;-71
2022/06/15 08:56:35;;;;;;;3.13;1.10;;;;;;;22.49;39.53;101242.16;5028857;28;20211;-72
2022/06/15 08:59:10;;;;;;;0.90;0.80;;;;;;;22.48;38.57;101237.81;5026741;28;20216;-72
2022/06/15 09:01:41;;;;;;;1.53;1.03;;;;;;;22.65;39.10;101234.00;5023798;28;20783;-70
2022/06/15 09:04:19;;;;;;;2.13;1.13;;;;;;;22.61;38.89;101236.00;5024167;28;20211;-71
2022/06/15 09:06:55;;;;;;;2.20;1.10;;;;;;;22.36;37.66;101235.97;5023629;28;20215;-72
2022/06/15 09:09:33;;;;;;;2.70;1.03;;;;;;;22.52;38.29;101233.97;5026091;28;20588;-71
2022/06/15 09:15:07;;;;;;;2.33;1.10;;;;;;;22.95;38.69;101227.56;5024793;28;20700;-71
2022/06/15 09:17:35;;;;;;;2.13;1.23;;;;;;;23.27;40.96;101224.47;5025510;28;20207;-70
2022/06/15 09:20:09;;;;;;;1.58;1.00;;;;;;;23.28;37.14;101223.53;5019808;28;20200;-71
2022/06/15 09:22:40;;;;;;;2.22;1.10;;;;;;;23.31;37.70;101215.34;5027064;28;20195;-72
2022/06/15 09:25:15;;;;;;;2.05;0.90;;;;;;;23.35;36.57;101216.81;5024163;28;20204;-71
2022/06/15 09:27:49;;;;;;;1.92;1.05;;;;;;;23.39;38.20;101212.97;5025724;28;20204;-72
2022/06/15 09:30:20;;;;;;;1.10;0.90;;;;;;;23.34;37.43;101215.13;5024273;28;20216;-72
2022/06/15 09:32:52;;;;;;;8.93;1.15;;;;;;;23.31;37.12;101212.69;5022642;28;20312;-71
2022/06/15 09:35:28;;;;;;;1.92;1.05;;;;;;;23.42;36.20;101218.94;5022126;28;20227;-71
2022/06/15 09:37:56;;;;;;;2.95;1.08;;;;;;;23.52;35.18;101219.13;5023684;28;20233;-72
2022/06/15 09:40:32;;;;;;;2.47;1.38;;;;;;;23.66;37.51;101209.28;5024124;28;20231;-72
2022/06/15 09:43:07;;;;;;;2.30;0.90;;;;;;;23.89;36.24;101213.84;5019312;28;20191;-69
2022/06/15 09:45:37;;;;;;;3.03;1.00;;;;;;;24.03;35.21;101215.50;5021711;28;20291;-71
2022/06/15 09:48:16;;;;;;;3.58;0.80;;;;;;;23.98;33.84;101220.31;5029937;28;20405;-71
2022/06/15 09:50:49;;;;;;;1.00;0.90;;;;;;;23.88;34.10;101211.28;5023238;28;20429;-72
2022/06/15 09:53:32;;;;;;;0.90;0.80;;;;;;;24.00;34.29;101213.91;5022407;28;20202;-71
2022/06/15 09:56:04;;;;;;;1.50;1.00;;;;;;;24.02;34.13;101219.13;5027300;28;20302;-72
2022/06/15 09:58:35;;;;;;;3.28;1.00;;;;;;;24.14;35.64;101212.88;5027258;28;20237;-71
2022/06/15 10:01:02;;;;;;;2.60;1.00;;;;;;;24.38;36.50;101207.53;5021495;28;20200;-71
2022/06/15 10:03:31;;;;;;;1.77;0.90;;;;;;;24.38;36.30;101210.22;5023216;28;20534;-71
2022/06/15 10:06:12;;;;;;;1.75;0.90;;;;;;;24.50;35.15;101211.09;5020929;28;20200;-72
2022/06/15 10:08:38;;;;;;;2.65;1.10;;;;;;;24.54;34.13;101209.94;5024453;28;20810;-71
2022/06/15 10:11:14;;;;;;;3.20;1.02;;;;;;;24.47;36.28;101199.81;5016896;28;20807;-71
2022/06/15 10:13:41;;;;;;;1.27;1.00;;;;;;;24.61;36.39;101202.31;5015229;28;20455;-72
2022/06/15 10:16:20;;;;;;;1.77;1.10;;;;;;;24.65;35.12;101205.59;5024693;28;20208;-72
2022/06/15 10:18:49;;;;;;;3.25;1.00;;;;;;;24.66;34.41;101202.81;5023009;28;20234;-71
2022/06/15 10:21:20;;;;;;;1.10;1.00;;;;;;;24.75;33.70;101204.75;5022615;28;20198;-71
2022/06/15 10:23:55;;;;;;;1.90;1.10;;;;;;;24.78;32.40;101206.34;5024362;28;20207;-71
2022/06/15 10:26:34;;;;;;;3.22;0.90;;;;;;;24.55;32.79;101197.44;5025409;28;20198;-70
2022/06/15 10:29:23;;;;;;;3.40;1.13;;;;;;;24.60;33.49;101192.59;5018919;28;20239;-71
2022/06/15 10:32:01;;;;;;;2.83;0.82;;;;;;;24.44;33.76;101187.56;5015816;28;20258;-72
2022/06/15 10:34:30;;;;;;;1.10;1.00;;;;;;;24.32;33.49;101185.84;5026378;28;20205;-72
2022/06/15 10:36:59;;;;;;;3.60;1.13;;;;;;;24.30;35.12;101179.78;5018977;28;20218;-72
2022/06/15 10:39:28;;;;;;;2.70;1.00;;;;;;;24.33;33.25;101180.38;5029852;28;20242;-70
2022/06/15 10:42:05;;;;;;;1.75;0.88;;;;;;;24.54;32.85;101182.44;5024455;28;20215;-71
2022/06/15 10:44:35;;;;;;;2.15;1.08;;;;;;;24.60;32.29;101183.78;5020418;28;20569;-72
2022/06/15 10:47:04;;;;;;;2.30;0.95;;;;;;;24.83;33.54;101168.66;5020121;28;20204;-71
2022/06/15 10:49:35;;;;;;;1.38;0.98;;;;;;;24.88;32.17;101174.47;5023885;28;20234;-71
2022/06/15 10:52:03;;;;;;;1.30;0.82;;;;;;;24.84;31.46;101173.88;5025602;28;20204;-71
2022/06/15 10:54:34;;;;;;;3.25;1.15;;;;;;;24.83;34.46;101168.66;5024228;28;20211;-71
2022/06/15 11:03:08;;;;;;;2.45;1.10;;;;;;;24.96;31.63;101161.41;5026861;28;20200;-71
2022/06/15 11:05:35;;;;;;;1.15;0.80;;;;;;;24.94;32.14;101158.00;5021954;28;20210;-71
2022/06/15 11:08:12;;;;;;;2.20;1.20;;;;;;;25.20;33.21;101157.75;5025183;28;20222;-71
2022/06/15 11:10:41;;;;;;;1.75;1.02;;;;;;;25.38;32.06;101153.66;5023914;28;20224;-71
2022/06/15 11:13:33;;;;;;;1.50;1.00;;;;;;;25.57;32.49;101149.50;5025209;28;20254;-70
2022/06/15 11:19:06;;;;;;;1.30;1.10;;;;;;;25.49;33.00;101145.63;5032276;28;20589;-71
2022/06/15 11:21:36;;;;;;;2.63;1.27;;;;;;;25.58;31.97;101145.84;5015921;28;20489;-71
2022/06/15 11:24:07;;;;;;;1.98;0.90;;;;;;;25.77;32.94;101148.72;5028530;28;20605;-71
2022/06/15 11:26:55;;;;;;;1.90;0.90;;;;;;;25.85;32.57;101140.91;5020548;28;20236;-72
2022/06/15 11:29:42;;;;;;;1.13;0.80;;;;;;;25.92;32.55;101137.72;5030020;28;20224;-71
2022/06/15 11:32:17;;;;;;;2.00;1.00;;;;;;;25.75;32.79;101137.31;5023010;28;20219;-71
2022/06/15 11:34:56;;;;;;;2.30;1.10;;;;;;;25.77;32.50;101139.84;5030610;28;20839;-71
2022/06/15 11:37:27;;;;;;;1.45;1.00;;;;;;;25.62;31.07;101133.94;5028107;28;20316;-71
2022/06/15 11:40:00;;;;;;;1.30;0.98;;;;;;;25.62;32.64;101126.78;5019693;28;20217;-71
2022/06/15 11:42:27;;;;;;;1.90;1.02;;;;;;;25.70;32.78;101132.34;5022473;28;20295;-71
2022/06/15 11:44:55;;;;;;;1.23;0.90;;;;;;;25.56;30.98;101132.63;5023738;28;20199;-71
2022/06/15 11:47:34;;;;;;;3.10;1.20;;;;;;;25.64;31.73;101124.81;5028693;28;20204;-71
2022/06/15 11:50:08;;;;;;;1.45;1.00;;;;;;;25.83;32.27;101124.16;5030432;28;20212;-72
2022/06/15 11:52:43;;;;;;;1.20;0.98;;;;;;;25.87;32.83;101120.28;5030659;28;20476;-71
2022/06/15 11:55:29;;;;;;;3.55;1.10;;;;;;;25.90;31.91;101111.16;5063733;28;20206;-71